sensor_id;sensor_type;location;lat;lon;timestamp;pressure;altitude;pressure_sealevel;temperature;humidity
33432;BME280;35187;31.882;34.828;2023-07-13T00:01:36;100410;;;25;53
33432;BME280;35187;31.882;34.828;2023-07-13T00:04:05;100400;;;25;53
33432;BME280;35187;31.882;34.828;2023-07-13T00:06:34;100400;;;25;53
33432;BME280;35187;31.882;34.828;2023-07-13T00:09:03;100410;;;25;53
33432;BME280;35187;31.882;34.828;2023-07-13T00:11:33;100410;;;25;53
33432;BME280;35187;31.882;34.828;2023-07-13T00:14:01;100410;;;25;53
33432;BME280;35187;31.882;34.828;2023-07-13T00:16:31;100410;;;25;53
33432;BME280;35187;31.882;34.828;2023-07-13T00:19:00;100410;;;26;53
33432;BME280;35187;31.882;34.828;2023-07-13T00:21:29;100400;;;25;53
33432;BME280;35187;31.882;34.828;2023-07-13T00:23:58;100400;;;25;53
33432;BME280;35187;31.882;34.828;2023-07-13T00:26:28;100400;;;25;53
33432;BME280;35187;31.882;34.828;2023-07-13T00:28:57;100410;;;25;53
33432;BME280;35187;31.882;34.828;2023-07-13T00:31:26;100410;;;25;53
33432;BME280;35187;31.882;34.828;2023-07-13T00:33:55;100410;;;25;53
33432;BME280;35187;31.882;34.828;2023-07-13T00:36:24;100400;;;25;53
33432;BME280;35187;31.882;34.828;2023-07-13T00:38:53;100400;;;26;53
33432;BME280;35187;31.882;34.828;2023-07-13T00:41:22;100400;;;25;53
33432;BME280;35187;31.882;34.828;2023-07-13T00:43:51;100390;;;25;53
33432;BME280;35187;31.882;34.828;2023-07-13T00:46:25;100390;;;26;53
33432;BME280;35187;31.882;34.828;2023-07-13T00:48:56;100390;;;25;53
33432;BME280;35187;31.882;34.828;2023-07-13T00:51:31;100390;;;25;53
33432;BME280;35187;31.882;34.828;2023-07-13T00:54:04;100390;;;25;53
33432;BME280;35187;31.882;34.828;2023-07-13T00:56:36;100380;;;25;53
33432;BME280;35187;31.882;34.828;2023-07-13T00:59:07;100380;;;25;53
33432;BME280;35187;31.882;34.828;2023-07-13T01:01:37;100390;;;25;53
33432;BME280;35187;31.882;34.828;2023-07-13T01:04:06;100400;;;26;53
33432;BME280;35187;31.882;34.828;2023-07-13T01:06:36;100390;;;25;53
33432;BME280;35187;31.882;34.828;2023-07-13T01:09:07;100380;;;25;53
33432;BME280;35187;31.882;34.828;2023-07-13T01:11:37;100390;;;25;53
33432;BME280;35187;31.882;34.828;2023-07-13T01:14:06;100400;;;25;53
33432;BME280;35187;31.882;34.828;2023-07-13T01:16:37;100390;;;25;53
33432;BME280;35187;31.882;34.828;2023-07-13T01:19:14;100380;;;25;53
33432;BME280;35187;31.882;34.828;2023-07-13T01:21:50;100380;;;25;53
33432;BME280;35187;31.882;34.828;2023-07-13T01:24:19;100390;;;25;53
33432;BME280;35187;31.882;34.828;2023-07-13T01:26:48;100390;;;25;53
33432;BME280;35187;31.882;34.828;2023-07-13T01:29:17;100390;;;25;53
33432;BME280;35187;31.882;34.828;2023-07-13T01:31:46;100390;;;25;53
33432;BME280;35187;31.882;34.828;2023-07-13T01:34:16;100390;;;25;53
33432;BME280;35187;31.882;34.828;2023-07-13T01:36:45;100380;;;25;53
33432;BME280;35187;31.882;34.828;2023-07-13T01:39:14;100380;;;25;53
33432;BME280;35187;31.882;34.828;2023-07-13T01:41:43;100380;;;25;53
33432;BME280;35187;31.882;34.828;2023-07-13T01:44:13;100380;;;25;53
33432;BME280;35187;31.882;34.828;2023-07-13T01:46:42;100380;;;25;54
33432;BME280;35187;31.882;34.828;2023-07-13T01:49:11;100380;;;25;54
33432;BME280;35187;31.882;34.828;2023-07-13T01:51:40;100370;;;26;54
33432;BME280;35187;31.882;34.828;2023-07-13T01:54:09;100380;;;25;54
33432;BME280;35187;31.882;34.828;2023-07-13T01:56:38;100380;;;25;53
33432;BME280;35187;31.882;34.828;2023-07-13T01:59:08;100380;;;25;53
33432;BME280;35187;31.882;34.828;2023-07-13T02:01:37;100380;;;25;54
33432;BME280;35187;31.882;34.828;2023-07-13T02:04:06;100380;;;25;54
33432;BME280;35187;31.882;34.828;2023-07-13T02:06:35;100390;;;25;54
33432;BME280;35187;31.882;34.828;2023-07-13T02:09:04;100390;;;25;54
33432;BME280;35187;31.882;34.828;2023-07-13T02:11:34;100380;;;25;54
33432;BME280;35187;31.882;34.828;2023-07-13T02:14:03;100390;;;26;54
33432;BME280;35187;31.882;34.828;2023-07-13T02:16:32;100390;;;25;53
33432;BME280;35187;31.882;34.828;2023-07-13T02:19:01;100400;;;25;53
33432;BME280;35187;31.882;34.828;2023-07-13T02:21:30;100400;;;25;53
33432;BME280;35187;31.882;34.828;2023-07-13T02:24:00;100400;;;25;53
33432;BME280;35187;31.882;34.828;2023-07-13T02:26:29;100400;;;25;53
33432;BME280;35187;31.882;34.828;2023-07-13T02:28:58;100410;;;25;53
33432;BME280;35187;31.882;34.828;2023-07-13T02:31:27;100400;;;25;54
33432;BME280;35187;31.882;34.828;2023-07-13T02:33:56;100400;;;25;54
33432;BME280;35187;31.882;34.828;2023-07-13T02:36:25;100410;;;25;54
33432;BME280;35187;31.882;34.828;2023-07-13T02:38:54;100410;;;25;54
33432;BME280;35187;31.882;34.828;2023-07-13T02:41:23;100410;;;25;53
33432;BME280;35187;31.882;34.828;2023-07-13T02:43:52;100410;;;25;53
33432;BME280;35187;31.882;34.828;2023-07-13T02:46:21;100410;;;25;53
33432;BME280;35187;31.882;34.828;2023-07-13T02:48:51;100420;;;25;53
33432;BME280;35187;31.882;34.828;2023-07-13T02:51:20;100420;;;25;54
33432;BME280;35187;31.882;34.828;2023-07-13T02:53:49;100420;;;25;53
33432;BME280;35187;31.882;34.828;2023-07-13T02:56:21;100420;;;25;54
33432;BME280;35187;31.882;34.828;2023-07-13T02:58:51;100420;;;25;54
33432;BME280;35187;31.882;34.828;2023-07-13T03:01:20;100420;;;25;54
33432;BME280;35187;31.882;34.828;2023-07-13T03:03:50;100420;;;25;54
33432;BME280;35187;31.882;34.828;2023-07-13T03:06:21;100420;;;25;54
33432;BME280;35187;31.882;34.828;2023-07-13T03:08:49;100420;;;26;54
33432;BME280;35187;31.882;34.828;2023-07-13T03:11:20;100420;;;26;54
33432;BME280;35187;31.882;34.828;2023-07-13T03:13:49;100420;;;25;54
33432;BME280;35187;31.882;34.828;2023-07-13T03:16:18;100420;;;25;54
33432;BME280;35187;31.882;34.828;2023-07-13T03:18:48;100420;;;25;54
33432;BME280;35187;31.882;34.828;2023-07-13T03:21:17;100410;;;25;54
33432;BME280;35187;31.882;34.828;2023-07-13T03:23:47;100410;;;25;54
33432;BME280;35187;31.882;34.828;2023-07-13T03:26:18;100410;;;25;54
33432;BME280;35187;31.882;34.828;2023-07-13T03:28:48;100400;;;26;54
33432;BME280;35187;31.882;34.828;2023-07-13T03:31:20;100410;;;25;54
33432;BME280;35187;31.882;34.828;2023-07-13T03:33:50;100410;;;25;54
33432;BME280;35187;31.882;34.828;2023-07-13T03:36:22;100400;;;25;54
33432;BME280;35187;31.882;34.828;2023-07-13T03:38:53;100400;;;26;54
33432;BME280;35187;31.882;34.828;2023-07-13T03:41:24;100400;;;26;55
33432;BME280;35187;31.882;34.828;2023-07-13T03:43:54;100410;;;26;55
33432;BME280;35187;31.882;34.828;2023-07-13T03:46:23;100410;;;25;55
33432;BME280;35187;31.882;34.828;2023-07-13T03:48:52;100410;;;25;55
33432;BME280;35187;31.882;34.828;2023-07-13T03:51:21;100410;;;25;54
33432;BME280;35187;31.882;34.828;2023-07-13T03:53:51;100400;;;25;54
33432;BME280;35187;31.882;34.828;2023-07-13T03:56:20;100400;;;25;54
33432;BME280;35187;31.882;34.828;2023-07-13T03:58:51;100410;;;25;53
33432;BME280;35187;31.882;34.828;2023-07-13T04:01:21;100410;;;25;53
33432;BME280;35187;31.882;34.828;2023-07-13T04:03:50;100410;;;25;52
33432;BME280;35187;31.882;34.828;2023-07-13T04:06:22;100420;;;25;51
33432;BME280;35187;31.882;34.828;2023-07-13T04:08:52;100420;;;25;51
33432;BME280;35187;31.882;34.828;2023-07-13T04:11:24;100420;;;25;51
33432;BME280;35187;31.882;34.828;2023-07-13T04:13:54;100420;;;25;51
33432;BME280;35187;31.882;34.828;2023-07-13T04:16:24;100420;;;25;51
33432;BME280;35187;31.882;34.828;2023-07-13T04:18:54;100430;;;25;50
33432;BME280;35187;31.882;34.828;2023-07-13T04:21:23;100430;;;25;50
33432;BME280;35187;31.882;34.828;2023-07-13T04:23:52;100430;;;26;50
33432;BME280;35187;31.882;34.828;2023-07-13T04:26:22;100440;;;25;50
33432;BME280;35187;31.882;34.828;2023-07-13T04:28:52;100440;;;25;50
33432;BME280;35187;31.882;34.828;2023-07-13T04:31:21;100440;;;25;50
33432;BME280;35187;31.882;34.828;2023-07-13T04:33:50;100440;;;25;50
33432;BME280;35187;31.882;34.828;2023-07-13T04:36:19;100440;;;25;50
33432;BME280;35187;31.882;34.828;2023-07-13T04:38:49;100450;;;25;49
33432;BME280;35187;31.882;34.828;2023-07-13T04:41:18;100440;;;25;49
33432;BME280;35187;31.882;34.828;2023-07-13T04:43:47;100440;;;25;49
33432;BME280;35187;31.882;34.828;2023-07-13T04:46:18;100440;;;25;49
33432;BME280;35187;31.882;34.828;2023-07-13T04:48:48;100450;;;25;49
33432;BME280;35187;31.882;34.828;2023-07-13T04:51:18;100460;;;26;49
33432;BME280;35187;31.882;34.828;2023-07-13T04:53:47;100460;;;25;50
33432;BME280;35187;31.882;34.828;2023-07-13T04:56:16;100460;;;25;50
33432;BME280;35187;31.882;34.828;2023-07-13T04:58:45;100460;;;25;50
33432;BME280;35187;31.882;34.828;2023-07-13T05:01:16;100470;;;25;50
33432;BME280;35187;31.882;34.828;2023-07-13T05:03:45;100470;;;25;50
33432;BME280;35187;31.882;34.828;2023-07-13T05:06:14;100470;;;25;50
33432;BME280;35187;31.882;34.828;2023-07-13T05:08:43;100470;;;25;50
33432;BME280;35187;31.882;34.828;2023-07-13T05:11:13;100470;;;25;50
33432;BME280;35187;31.882;34.828;2023-07-13T05:13:43;100460;;;25;50
33432;BME280;35187;31.882;34.828;2023-07-13T05:16:13;100460;;;25;50
33432;BME280;35187;31.882;34.828;2023-07-13T05:18:43;100460;;;25;50
33432;BME280;35187;31.882;34.828;2023-07-13T05:21:12;100460;;;25;50
33432;BME280;35187;31.882;34.828;2023-07-13T05:23:41;100450;;;25;51
33432;BME280;35187;31.882;34.828;2023-07-13T05:26:11;100450;;;25;50
33432;BME280;35187;31.882;34.828;2023-07-13T05:28:41;100450;;;25;51
33432;BME280;35187;31.882;34.828;2023-07-13T05:31:10;100450;;;25;51
33432;BME280;35187;31.882;34.828;2023-07-13T05:33:39;100450;;;25;51
33432;BME280;35187;31.882;34.828;2023-07-13T05:36:08;100450;;;25;51
33432;BME280;35187;31.882;34.828;2023-07-13T05:38:37;100440;;;26;51
33432;BME280;35187;31.882;34.828;2023-07-13T05:41:06;100450;;;26;51
33432;BME280;35187;31.882;34.828;2023-07-13T05:43:35;100450;;;25;51
33432;BME280;35187;31.882;34.828;2023-07-13T05:46:05;100450;;;26;51
33432;BME280;35187;31.882;34.828;2023-07-13T05:48:34;100450;;;25;52
33432;BME280;35187;31.882;34.828;2023-07-13T05:51:03;100450;;;25;50
33432;BME280;35187;31.882;34.828;2023-07-13T05:53:32;100450;;;24;47
33432;BME280;35187;31.882;34.828;2023-07-13T05:56:01;100460;;;23;47
33432;BME280;35187;31.882;34.828;2023-07-13T05:58:30;100460;;;24;53
33432;BME280;35187;31.882;34.828;2023-07-13T06:01:01;100460;;;23;51
33432;BME280;35187;31.882;34.828;2023-07-13T06:03:31;100460;;;23;50
33432;BME280;35187;31.882;34.828;2023-07-13T06:06:00;100460;;;23;56
33432;BME280;35187;31.882;34.828;2023-07-13T06:08:29;100460;;;23;53
33432;BME280;35187;31.882;34.828;2023-07-13T06:11:03;100460;;;23;49
33432;BME280;35187;31.882;34.828;2023-07-13T06:13:32;100460;;;23;56
33432;BME280;35187;31.882;34.828;2023-07-13T06:16:02;100450;;;23;58
33432;BME280;35187;31.882;34.828;2023-07-13T06:18:32;100460;;;24;51
33432;BME280;35187;31.882;34.828;2023-07-13T06:21:05;100460;;;24;52
33432;BME280;35187;31.882;34.828;2023-07-13T06:23:34;100460;;;24;55
33432;BME280;35187;31.882;34.828;2023-07-13T06:26:03;100460;;;24;55
33432;BME280;35187;31.882;34.828;2023-07-13T06:28:32;100500;;;24;50
33432;BME280;35187;31.882;34.828;2023-07-13T06:31:01;100500;;;24;52
33432;BME280;35187;31.882;34.828;2023-07-13T06:33:33;100510;;;25;53
33432;BME280;35187;31.882;34.828;2023-07-13T06:36:01;100510;;;25;53
33432;BME280;35187;31.882;34.828;2023-07-13T06:38:31;100510;;;25;51
33432;BME280;35187;31.882;34.828;2023-07-13T06:41:00;100500;;;25;53
33432;BME280;35187;31.882;34.828;2023-07-13T06:43:28;100500;;;25;53
33432;BME280;35187;31.882;34.828;2023-07-13T06:45:57;100450;;;25;51
33432;BME280;35187;31.882;34.828;2023-07-13T06:48:27;100450;;;25;48
33432;BME280;35187;31.882;34.828;2023-07-13T06:50:56;100460;;;25;51
33432;BME280;35187;31.882;34.828;2023-07-13T06:53:25;100460;;;25;53
33432;BME280;35187;31.882;34.828;2023-07-13T06:56:37;100460;;;25;47
33432;BME280;35187;31.882;34.828;2023-07-13T06:59:06;100460;;;25;51
33432;BME280;35187;31.882;34.828;2023-07-13T07:01:35;100460;;;25;54
33432;BME280;35187;31.882;34.828;2023-07-13T07:04:04;100460;;;25;49
33432;BME280;35187;31.882;34.828;2023-07-13T07:06:33;100460;;;25;49
33432;BME280;35187;31.882;34.828;2023-07-13T07:09:02;100460;;;25;53
33432;BME280;35187;31.882;34.828;2023-07-13T07:11:31;100460;;;25;53
33432;BME280;35187;31.882;34.828;2023-07-13T07:14:00;100460;;;25;47
33432;BME280;35187;31.882;34.828;2023-07-13T07:16:29;100460;;;24;51
33432;BME280;35187;31.882;34.828;2023-07-13T07:18:58;100460;;;24;54
33432;BME280;35187;31.882;34.828;2023-07-13T07:21:26;100460;;;24;55
33432;BME280;35187;31.882;34.828;2023-07-13T07:23:55;100450;;;25;49
33432;BME280;35187;31.882;34.828;2023-07-13T07:26:24;100460;;;24;50
33432;BME280;35187;31.882;34.828;2023-07-13T07:28:53;100460;;;24;53
33432;BME280;35187;31.882;34.828;2023-07-13T07:31:22;100450;;;25;54
33432;BME280;35187;31.882;34.828;2023-07-13T07:33:50;100450;;;24;48
33432;BME280;35187;31.882;34.828;2023-07-13T07:36:19;100450;;;24;51
33432;BME280;35187;31.882;34.828;2023-07-13T07:38:48;100440;;;25;53
33432;BME280;35187;31.882;34.828;2023-07-13T07:41:17;100440;;;25;53
33432;BME280;35187;31.882;34.828;2023-07-13T07:43:46;100440;;;25;47
33432;BME280;35187;31.882;34.828;2023-07-13T07:46:15;100440;;;24;51
33432;BME280;35187;31.882;34.828;2023-07-13T07:48:43;100440;;;25;54
33432;BME280;35187;31.882;34.828;2023-07-13T07:51:12;100440;;;25;52
33432;BME280;35187;31.882;34.828;2023-07-13T07:53:41;100440;;;24;47
33432;BME280;35187;31.882;34.828;2023-07-13T07:56:10;100440;;;25;51
33432;BME280;35187;31.882;34.828;2023-07-13T07:58:38;100450;;;25;54
33432;BME280;35187;31.882;34.828;2023-07-13T08:01:08;100450;;;25;52
33432;BME280;35187;31.882;34.828;2023-07-13T08:03:36;100440;;;24;48
33432;BME280;35187;31.882;34.828;2023-07-13T08:06:05;100440;;;25;52
33432;BME280;35187;31.882;34.828;2023-07-13T08:08:35;100440;;;25;54
33432;BME280;35187;31.882;34.828;2023-07-13T08:11:05;100440;;;25;51
33432;BME280;35187;31.882;34.828;2023-07-13T08:13:34;100440;;;24;48
33432;BME280;35187;31.882;34.828;2023-07-13T08:16:05;100440;;;24;52
33432;BME280;35187;31.882;34.828;2023-07-13T08:18:34;100440;;;25;54
33432;BME280;35187;31.882;34.828;2023-07-13T08:21:04;100440;;;25;52
33432;BME280;35187;31.882;34.828;2023-07-13T08:23:33;100430;;;24;48
33432;BME280;35187;31.882;34.828;2023-07-13T08:26:03;100430;;;25;52
33432;BME280;35187;31.882;34.828;2023-07-13T08:28:32;100440;;;25;54
33432;BME280;35187;31.882;34.828;2023-07-13T08:31:02;100430;;;25;51
33432;BME280;35187;31.882;34.828;2023-07-13T08:33:31;100430;;;25;47
33432;BME280;35187;31.882;34.828;2023-07-13T08:36:00;100430;;;25;51
33432;BME280;35187;31.882;34.828;2023-07-13T08:38:29;100430;;;25;53
33432;BME280;35187;31.882;34.828;2023-07-13T08:40:58;100430;;;25;51
33432;BME280;35187;31.882;34.828;2023-07-13T08:43:30;100430;;;25;47
33432;BME280;35187;31.882;34.828;2023-07-13T08:46:02;100430;;;25;51
33432;BME280;35187;31.882;34.828;2023-07-13T08:48:36;100430;;;25;53
33432;BME280;35187;31.882;34.828;2023-07-13T08:51:17;100430;;;25;51
33432;BME280;35187;31.882;34.828;2023-07-13T08:53:54;100430;;;25;47
33432;BME280;35187;31.882;34.828;2023-07-13T08:56:25;100420;;;25;51
33432;BME280;35187;31.882;34.828;2023-07-13T08:58:57;100420;;;25;53
33432;BME280;35187;31.882;34.828;2023-07-13T09:01:32;100420;;;25;50
33432;BME280;35187;31.882;34.828;2023-07-13T09:04:05;100420;;;25;48
33432;BME280;35187;31.882;34.828;2023-07-13T09:06:42;100410;;;25;52
33432;BME280;35187;31.882;34.828;2023-07-13T09:09:23;100410;;;25;54
33432;BME280;35187;31.882;34.828;2023-07-13T09:11:59;100410;;;25;49
33432;BME280;35187;31.882;34.828;2023-07-13T09:14:40;100410;;;25;49
33432;BME280;35187;31.882;34.828;2023-07-13T09:17:17;100410;;;25;52
33432;BME280;35187;31.882;34.828;2023-07-13T09:19:51;100410;;;25;53
33432;BME280;35187;31.882;34.828;2023-07-13T09:22:23;100410;;;25;48
33432;BME280;35187;31.882;34.828;2023-07-13T09:24:58;100410;;;25;50
33432;BME280;35187;31.882;34.828;2023-07-13T09:27:33;100400;;;25;52
33432;BME280;35187;31.882;34.828;2023-07-13T09:30:17;100400;;;25;53
33432;BME280;35187;31.882;34.828;2023-07-13T09:32:51;100400;;;25;47
33432;BME280;35187;31.882;34.828;2023-07-13T09:35:24;100390;;;25;49
33432;BME280;35187;31.882;34.828;2023-07-13T09:37:58;100390;;;25;52
33432;BME280;35187;31.882;34.828;2023-07-13T09:40:38;100390;;;25;53
33432;BME280;35187;31.882;34.828;2023-07-13T09:43:11;100390;;;25;48
33432;BME280;35187;31.882;34.828;2023-07-13T09:45:46;100390;;;25;49
33432;BME280;35187;31.882;34.828;2023-07-13T09:48:16;100390;;;25;52
33432;BME280;35187;31.882;34.828;2023-07-13T09:50:45;100390;;;25;52
33432;BME280;35187;31.882;34.828;2023-07-13T09:53:15;100390;;;25;52
33432;BME280;35187;31.882;34.828;2023-07-13T09:55:45;100380;;;25;45
33432;BME280;35187;31.882;34.828;2023-07-13T09:58:17;100380;;;25;49
33432;BME280;35187;31.882;34.828;2023-07-13T10:00:56;100370;;;25;51
33432;BME280;35187;31.882;34.828;2023-07-13T10:03:27;100370;;;25;51
33432;BME280;35187;31.882;34.828;2023-07-13T10:06:03;100370;;;25;48
33432;BME280;35187;31.882;34.828;2023-07-13T10:08:38;100370;;;25;46
33432;BME280;35187;31.882;34.828;2023-07-13T10:11:11;100370;;;25;49
33432;BME280;35187;31.882;34.828;2023-07-13T10:13:42;100370;;;25;51
33432;BME280;35187;31.882;34.828;2023-07-13T10:16:12;100360;;;25;47
33432;BME280;35187;31.882;34.828;2023-07-13T10:18:46;100360;;;25;45
33432;BME280;35187;31.882;34.828;2023-07-13T10:21:17;100360;;;25;49
33432;BME280;35187;31.882;34.828;2023-07-13T10:23:51;100350;;;25;50
33432;BME280;35187;31.882;34.828;2023-07-13T10:26:25;100350;;;24;46
33432;BME280;35187;31.882;34.828;2023-07-13T10:28:57;100350;;;23;48
33432;BME280;35187;31.882;34.828;2023-07-13T10:31:28;100350;;;23;52
33432;BME280;35187;31.882;34.828;2023-07-13T10:33:58;100340;;;23;50
33432;BME280;35187;31.882;34.828;2023-07-13T10:36:33;100350;;;23;47
33432;BME280;35187;31.882;34.828;2023-07-13T10:39:05;100340;;;23;53
33432;BME280;35187;31.882;34.828;2023-07-13T10:41:39;100340;;;24;55
33432;BME280;35187;31.882;34.828;2023-07-13T10:44:18;100340;;;24;54
33432;BME280;35187;31.882;34.828;2023-07-13T10:46:49;100340;;;25;48
33432;BME280;35187;31.882;34.828;2023-07-13T10:49:18;100330;;;24;51
33432;BME280;35187;31.882;34.828;2023-07-13T10:51:47;100330;;;24;53
33432;BME280;35187;31.882;34.828;2023-07-13T10:54:19;100320;;;25;54
33432;BME280;35187;31.882;34.828;2023-07-13T10:56:52;100320;;;25;49
33432;BME280;35187;31.882;34.828;2023-07-13T10:59:26;100320;;;24;50
33432;BME280;35187;31.882;34.828;2023-07-13T11:01:58;100310;;;24;53
33432;BME280;35187;31.882;34.828;2023-07-13T11:04:40;100310;;;24;54
33432;BME280;35187;31.882;34.828;2023-07-13T11:07:26;100300;;;24;48
33432;BME280;35187;31.882;34.828;2023-07-13T11:09:57;100300;;;24;50
33432;BME280;35187;31.882;34.828;2023-07-13T11:15:29;100300;;;24;53
33432;BME280;35187;31.882;34.828;2023-07-13T11:18:03;100300;;;25;47
33432;BME280;35187;31.882;34.828;2023-07-13T11:20:38;100290;;;24;51
33432;BME280;35187;31.882;34.828;2023-07-13T11:23:18;100280;;;24;53
33432;BME280;35187;31.882;34.828;2023-07-13T11:25:47;100280;;;25;53
33432;BME280;35187;31.882;34.828;2023-07-13T11:28:21;100280;;;24;49
33432;BME280;35187;31.882;34.828;2023-07-13T11:31:02;100280;;;24;51
33432;BME280;35187;31.882;34.828;2023-07-13T11:33:51;100270;;;24;54
33432;BME280;35187;31.882;34.828;2023-07-13T11:36:21;100270;;;24;55
33432;BME280;35187;31.882;34.828;2023-07-13T11:39:01;100270;;;24;50
33432;BME280;35187;31.882;34.828;2023-07-13T11:41:32;100260;;;24;51
33432;BME280;35187;31.882;34.828;2023-07-13T11:44:11;100260;;;24;54
33432;BME280;35187;31.882;34.828;2023-07-13T11:46:45;100260;;;24;55
33432;BME280;35187;31.882;34.828;2023-07-13T11:49:16;100260;;;24;48
33432;BME280;35187;31.882;34.828;2023-07-13T11:51:46;100250;;;24;51
33432;BME280;35187;31.882;34.828;2023-07-13T11:54:25;100250;;;25;53
33432;BME280;35187;31.882;34.828;2023-07-13T11:56:55;100250;;;25;54
33432;BME280;35187;31.882;34.828;2023-07-13T11:59:26;100240;;;25;47
33432;BME280;35187;31.882;34.828;2023-07-13T12:01:55;100240;;;25;52
33432;BME280;35187;31.882;34.828;2023-07-13T12:04:28;100230;;;24;54
33432;BME280;35187;31.882;34.828;2023-07-13T12:07:04;100230;;;24;55
33432;BME280;35187;31.882;34.828;2023-07-13T12:09:34;100220;;;24;48
33432;BME280;35187;31.882;34.828;2023-07-13T12:12:03;100220;;;24;52
33432;BME280;35187;31.882;34.828;2023-07-13T12:14:36;100220;;;24;54
33432;BME280;35187;31.882;34.828;2023-07-13T12:17:09;100220;;;24;55
33432;BME280;35187;31.882;34.828;2023-07-13T12:19:40;100220;;;25;49
33432;BME280;35187;31.882;34.828;2023-07-13T12:22:12;100220;;;24;52
33432;BME280;35187;31.882;34.828;2023-07-13T12:24:42;100210;;;24;55
33432;BME280;35187;31.882;34.828;2023-07-13T12:27:20;100210;;;25;53
33432;BME280;35187;31.882;34.828;2023-07-13T12:29:52;100210;;;24;48
33432;BME280;35187;31.882;34.828;2023-07-13T12:32:21;100210;;;24;53
33432;BME280;35187;31.882;34.828;2023-07-13T12:34:53;100210;;;24;55
33432;BME280;35187;31.882;34.828;2023-07-13T12:37:23;100200;;;25;53
33432;BME280;35187;31.882;34.828;2023-07-13T12:39:52;100200;;;24;49
33432;BME280;35187;31.882;34.828;2023-07-13T12:42:23;100200;;;24;53
33432;BME280;35187;31.882;34.828;2023-07-13T12:44:53;100200;;;24;55
33432;BME280;35187;31.882;34.828;2023-07-13T12:47:23;100200;;;25;52
33432;BME280;35187;31.882;34.828;2023-07-13T12:49:56;100200;;;24;50
33432;BME280;35187;31.882;34.828;2023-07-13T12:52:32;100200;;;24;53
33432;BME280;35187;31.882;34.828;2023-07-13T12:55:06;100200;;;25;55
33432;BME280;35187;31.882;34.828;2023-07-13T12:57:40;100200;;;25;50
33432;BME280;35187;31.882;34.828;2023-07-13T13:00:22;100190;;;24;50
33432;BME280;35187;31.882;34.828;2023-07-13T13:02:58;100190;;;25;54
33432;BME280;35187;31.882;34.828;2023-07-13T13:05:31;100190;;;25;54
33432;BME280;35187;31.882;34.828;2023-07-13T13:08:00;100190;;;25;48
33432;BME280;35187;31.882;34.828;2023-07-13T13:10:29;100180;;;25;51
33432;BME280;35187;31.882;34.828;2023-07-13T13:12:58;100180;;;25;54
33432;BME280;35187;31.882;34.828;2023-07-13T13:15:32;100180;;;25;55
33432;BME280;35187;31.882;34.828;2023-07-13T13:18:01;100170;;;24;47
33432;BME280;35187;31.882;34.828;2023-07-13T13:20:30;100170;;;25;52
33432;BME280;35187;31.882;34.828;2023-07-13T13:22:58;100180;;;25;54
33432;BME280;35187;31.882;34.828;2023-07-13T13:25:27;100170;;;25;55
33432;BME280;35187;31.882;34.828;2023-07-13T13:27:56;100160;;;25;50
33432;BME280;35187;31.882;34.828;2023-07-13T13:30:25;100170;;;24;51
33432;BME280;35187;31.882;34.828;2023-07-13T13:32:53;100160;;;24;54
33432;BME280;35187;31.882;34.828;2023-07-13T13:35:22;100160;;;24;56
33432;BME280;35187;31.882;34.828;2023-07-13T13:37:51;100160;;;24;54
33432;BME280;35187;31.882;34.828;2023-07-13T13:40:21;100160;;;24;48
33432;BME280;35187;31.882;34.828;2023-07-13T13:42:51;100160;;;24;53
33432;BME280;35187;31.882;34.828;2023-07-13T13:45:19;100160;;;25;55
33432;BME280;35187;31.882;34.828;2023-07-13T13:47:49;100150;;;25;50
33432;BME280;35187;31.882;34.828;2023-07-13T13:50:21;100150;;;24;50
33432;BME280;35187;31.882;34.828;2023-07-13T13:52:50;100150;;;25;53
33432;BME280;35187;31.882;34.828;2023-07-13T13:55:21;100150;;;25;53
33432;BME280;35187;31.882;34.828;2023-07-13T13:57:50;100150;;;25;48
33432;BME280;35187;31.882;34.828;2023-07-13T14:00:20;100150;;;25;53
33432;BME280;35187;31.882;34.828;2023-07-13T14:02:49;100160;;;25;55
33432;BME280;35187;31.882;34.828;2023-07-13T14:05:22;100150;;;25;51
33432;BME280;35187;31.882;34.828;2023-07-13T14:07:51;100150;;;24;51
33432;BME280;35187;31.882;34.828;2023-07-13T14:10:21;100160;;;24;54
33432;BME280;35187;31.882;34.828;2023-07-13T14:12:53;100150;;;24;56
33432;BME280;35187;31.882;34.828;2023-07-13T14:15:29;100150;;;25;56
33432;BME280;35187;31.882;34.828;2023-07-13T14:17:58;100140;;;24;48
33432;BME280;35187;31.882;34.828;2023-07-13T14:20:27;100140;;;24;53
33432;BME280;35187;31.882;34.828;2023-07-13T14:22:56;100140;;;24;53
33432;BME280;35187;31.882;34.828;2023-07-13T14:25:25;100140;;;25;53
33432;BME280;35187;31.882;34.828;2023-07-13T14:27:56;100140;;;25;52
33432;BME280;35187;31.882;34.828;2023-07-13T14:30:25;100140;;;25;52
33432;BME280;35187;31.882;34.828;2023-07-13T14:32:54;100130;;;25;52
33432;BME280;35187;31.882;34.828;2023-07-13T14:35:23;100130;;;25;52
33432;BME280;35187;31.882;34.828;2023-07-13T14:37:52;100130;;;25;52
33432;BME280;35187;31.882;34.828;2023-07-13T14:40:25;100130;;;25;52
33432;BME280;35187;31.882;34.828;2023-07-13T14:42:55;100130;;;25;52
33432;BME280;35187;31.882;34.828;2023-07-13T14:45:24;100120;;;25;52